Archival Weather

Luke Afb

Glendale, Arizona (KLUF)

Report from: Friday, April 19, 2024 2:55 PM MST
Current time: Monday, June 24, 2024 1:50 AM MST

Current weather – Weather history – Daily summaries
Weather forecast

Temperature32.4°C (90.3°F)
Heat index30.1°C (86.2°F)
Dew point-7.8°C (18.0°F)
Winds 14 kts (7.2 m/s, 16.1 mph) South-Southwest (200°)
Visibility10 mi. (16.1 km)
Clouds Few clouds 20,000 ft. (6,096 m)
Altimeter29.76 in.Hg (1008 mB)
Relative humidity7 %
Density altitude2,271 ft. (692 m)
Sea-level pressure100.7 kPa (1007 mB, 29.72 in.Hg)
Remarks System requires maintenance
Automated weather observing station with precipitation discriminator
Flight conditions Visual Meteorological Conditions
Raw dataKLUF 192155Z 200014KT 10SM FEW200 32/M08 A2976 RMK AO2A SLP066 T03241078 $
An error has occurred. This application may no longer respond until reloaded. Reload 🗙